createdAt,value
2023-12-15T00:00:50.081Z,79.41
2023-12-15T00:03:53.317Z,78.78
2023-12-15T00:06:56.381Z,79.11
2023-12-15T00:09:59.137Z,78.97
2023-12-15T00:13:03.372Z,79.00
2023-12-15T00:16:07.259Z,79.00
2023-12-15T00:19:10.306Z,78.70
2023-12-15T00:22:13.382Z,78.72
2023-12-15T00:25:16.344Z,78.92
2023-12-15T00:28:20.652Z,79.29
2023-12-15T00:31:23.366Z,79.18
2023-12-15T00:34:26.223Z,78.90
2023-12-15T00:37:29.732Z,78.99
2023-12-15T00:40:32.387Z,79.27
2023-12-15T00:43:36.808Z,78.93
2023-12-15T00:46:39.519Z,78.92
2023-12-15T00:49:42.449Z,79.01
2023-12-15T00:52:45.563Z,78.59
2023-12-15T00:55:48.288Z,79.10
2023-12-15T00:58:52.578Z,79.15
2023-12-15T01:01:55.409Z,78.82
2023-12-15T01:04:58.367Z,78.44
2023-12-15T01:08:01.178Z,78.86
2023-12-15T01:11:04.384Z,78.71
2023-12-15T01:14:08.550Z,79.09
2023-12-15T01:17:11.700Z,79.42
2023-12-15T01:20:15.463Z,78.43
2023-12-15T01:23:18.297Z,78.22
2023-12-15T01:26:21.216Z,78.53
2023-12-15T01:29:25.482Z,78.92
2023-12-15T01:32:28.401Z,79.07
2023-12-15T01:35:31.320Z,78.99
2023-12-15T01:38:34.109Z,78.73
2023-12-15T01:41:37.060Z,78.45
2023-12-15T01:44:41.787Z,78.29
2023-12-15T01:47:45.630Z,79.07
2023-12-15T01:50:48.526Z,78.88
2023-12-15T01:53:51.251Z,79.24
2023-12-15T01:56:54.200Z,78.19
2023-12-15T01:59:58.423Z,78.83
2023-12-15T02:03:01.179Z,78.80
2023-12-15T02:06:04.194Z,77.68
2023-12-15T02:09:06.938Z,77.66
2023-12-15T02:12:10.564Z,77.56
2023-12-15T02:15:15.279Z,77.66
2023-12-15T02:18:18.219Z,77.77
2023-12-15T02:21:21.175Z,78.58
2023-12-15T02:24:25.523Z,79.13
2023-12-15T02:27:28.693Z,78.30
2023-12-15T02:30:32.026Z,78.19
2023-12-15T02:33:34.952Z,78.07
2023-12-15T02:36:38.343Z,78.64
2023-12-15T02:39:42.449Z,78.00
2023-12-15T02:42:45.344Z,78.05
2023-12-15T02:45:48.367Z,78.45
2023-12-15T02:48:51.298Z,78.17
2023-12-15T02:51:54.324Z,77.67
2023-12-15T02:54:58.417Z,78.29
2023-12-15T02:58:01.587Z,78.31
2023-12-15T03:01:05.106Z,78.15
2023-12-15T03:04:07.986Z,78.92
2023-12-15T03:07:11.447Z,79.20
2023-12-15T03:10:19.232Z,78.73
2023-12-15T03:13:22.131Z,79.19
2023-12-15T03:16:25.491Z,79.18
2023-12-15T03:19:28.440Z,79.11
2023-12-15T03:22:31.285Z,79.94
2023-12-15T03:25:35.485Z,80.38
2023-12-15T03:28:40.832Z,80.31
2023-12-15T03:31:43.571Z,80.99
2023-12-15T03:34:46.423Z,80.40
2023-12-15T03:37:49.286Z,80.39
2023-12-15T03:40:53.434Z,80.42
2023-12-15T03:43:56.364Z,80.45
2023-12-15T03:46:59.279Z,79.98
2023-12-15T03:50:04.754Z,80.47
2023-12-15T03:53:07.810Z,78.44
2023-12-15T03:56:12.366Z,80.10
2023-12-15T03:59:15.303Z,80.82
2023-12-15T04:02:20.299Z,79.94
2023-12-15T04:05:23.471Z,79.61
2023-12-15T04:08:26.420Z,79.67
2023-12-15T04:11:31.207Z,81.12
2023-12-15T04:14:34.997Z,80.60
2023-12-15T04:17:38.236Z,80.35
2023-12-15T04:20:41.367Z,78.98
2023-12-15T04:23:44.186Z,80.23
2023-12-15T04:26:48.555Z,80.44
2023-12-15T04:29:51.396Z,79.79
2023-12-15T04:32:54.141Z,81.43
2023-12-15T04:35:57.014Z,80.57
2023-12-15T04:38:59.870Z,80.69
2023-12-15T04:42:03.986Z,79.46
2023-12-15T04:45:08.811Z,80.18
2023-12-15T04:48:11.721Z,80.94
2023-12-15T04:51:15.645Z,79.87
2023-12-15T04:54:18.710Z,79.61
2023-12-15T04:57:22.785Z,81.07
2023-12-15T05:00:26.044Z,78.93
2023-12-15T05:03:29.128Z,79.40
2023-12-15T05:06:32.912Z,78.66
2023-12-15T05:09:36.207Z,78.42
2023-12-15T05:12:40.736Z,79.06
2023-12-15T05:15:43.668Z,79.96
2023-12-15T05:18:47.094Z,79.01
2023-12-15T05:21:50.270Z,79.02
2023-12-15T05:24:53.574Z,78.81
2023-12-15T05:27:58.105Z,80.78
2023-12-15T05:31:01.105Z,81.56
2023-12-15T05:34:04.272Z,80.37
2023-12-15T05:37:07.902Z,79.83
2023-12-15T05:40:13.306Z,79.67
2023-12-15T05:43:18.064Z,81.03
2023-12-15T05:46:21.716Z,81.32
2023-12-15T05:49:25.472Z,80.25
2023-12-15T05:52:28.830Z,81.15
2023-12-15T05:55:34.489Z,81.54
2023-12-15T05:58:38.611Z,81.19
2023-12-15T06:01:42.094Z,80.69
2023-12-15T06:04:44.994Z,80.99
2023-12-15T06:07:49.703Z,81.65
2023-12-15T06:10:52.937Z,80.74
2023-12-15T06:13:58.113Z,80.16
2023-12-15T06:17:02.304Z,81.54
2023-12-15T06:20:08.481Z,80.88
2023-12-15T06:23:11.562Z,80.42
2023-12-15T06:26:19.344Z,80.52
2023-12-15T06:29:23.562Z,80.78
2023-12-15T06:32:26.697Z,80.92
2023-12-15T06:35:29.651Z,80.95
2023-12-15T06:38:32.487Z,80.95
2023-12-15T06:41:35.748Z,80.74
2023-12-15T06:44:40.980Z,81.77
2023-12-15T06:47:44.178Z,80.72
2023-12-15T06:50:47.306Z,82.33
2023-12-15T06:53:50.126Z,81.40
2023-12-15T06:56:52.995Z,82.43
2023-12-15T06:59:57.699Z,81.03
2023-12-15T07:03:00.581Z,81.63
2023-12-15T07:06:03.910Z,81.28
2023-12-15T07:09:06.684Z,81.90
2023-12-15T07:12:11.040Z,81.77
2023-12-15T07:15:16.508Z,81.57
2023-12-15T07:18:19.529Z,81.72
2023-12-15T07:21:22.625Z,81.10
2023-12-15T07:24:26.752Z,80.71
2023-12-15T07:27:29.635Z,81.79
2023-12-15T07:30:33.927Z,82.63
2023-12-15T07:33:40.283Z,80.61
2023-12-15T07:36:44.039Z,81.31
2023-12-15T07:39:49.505Z,80.75
2023-12-15T07:42:52.200Z,80.26
2023-12-15T07:45:56.308Z,80.88
2023-12-15T07:48:59.603Z,81.21
2023-12-15T07:52:02.855Z,81.14
2023-12-15T07:55:06.388Z,81.02
2023-12-15T07:58:11.309Z,81.68
2023-12-15T08:01:15.431Z,79.56
2023-12-15T08:04:22.459Z,81.22
2023-12-15T08:07:25.210Z,79.75
2023-12-15T08:10:30.693Z,79.49
2023-12-15T08:13:34.060Z,79.92
2023-12-15T08:16:41.105Z,79.54
2023-12-15T08:19:45.918Z,80.14
2023-12-15T08:22:48.770Z,80.46
2023-12-15T08:25:51.524Z,80.52
2023-12-15T08:28:55.485Z,79.33
2023-12-15T08:32:00.137Z,79.05
2023-12-15T08:35:03.702Z,80.55
2023-12-15T08:38:06.667Z,80.90
2023-12-15T08:41:09.942Z,81.32
2023-12-15T08:44:20.025Z,80.50
2023-12-15T08:47:33.123Z,79.39
2023-12-15T08:50:36.192Z,80.55
2023-12-15T08:53:40.425Z,80.72
2023-12-15T08:56:43.320Z,80.83
2023-12-15T08:59:48.243Z,80.24
2023-12-15T09:02:54.678Z,80.24
2023-12-15T09:06:17.740Z,79.93
2023-12-15T09:09:25.342Z,80.81
2023-12-15T09:12:28.278Z,80.50
2023-12-15T09:15:34.841Z,80.39
2023-12-15T09:18:39.942Z,80.49
2023-12-15T09:21:45.148Z,80.18
2023-12-15T09:24:48.130Z,79.93
2023-12-15T09:27:50.847Z,78.40
2023-12-15T09:30:56.910Z,79.31
2023-12-15T09:34:04.074Z,78.18
2023-12-15T09:37:09.100Z,78.91
2023-12-15T09:40:12.857Z,80.12
2023-12-15T09:43:15.682Z,79.32
2023-12-15T09:46:18.740Z,79.51
2023-12-15T09:49:25.913Z,78.76
2023-12-15T09:52:29.162Z,78.77
2023-12-15T09:55:38.437Z,79.50
2023-12-15T09:58:52.347Z,79.42
2023-12-15T10:02:00.011Z,78.80
2023-12-15T10:05:04.550Z,78.08
2023-12-15T10:08:09.099Z,78.49
2023-12-15T10:11:14.819Z,78.92
2023-12-15T10:14:20.858Z,78.79
2023-12-15T10:17:25.818Z,78.65
2023-12-15T10:20:31.418Z,78.98
2023-12-15T10:23:35.962Z,78.25
2023-12-15T10:26:40.340Z,78.50
2023-12-15T10:29:44.823Z,78.34
2023-12-15T10:32:47.911Z,77.84
2023-12-15T10:35:52.485Z,79.17
2023-12-15T10:39:00.094Z,78.98
2023-12-15T10:42:07.293Z,78.48
2023-12-15T10:45:11.233Z,78.33
2023-12-15T10:48:17.687Z,78.22
2023-12-15T10:51:32.078Z,77.99
2023-12-15T10:54:38.352Z,77.94
2023-12-15T10:57:46.533Z,78.55
2023-12-15T11:00:52.482Z,77.67
2023-12-15T11:03:55.458Z,77.38
2023-12-15T11:07:03.336Z,77.74
2023-12-15T11:10:07.560Z,77.89
2023-12-15T11:13:44.910Z,78.51
2023-12-15T11:16:47.984Z,79.23
2023-12-15T11:20:01.374Z,78.85
2023-12-15T11:23:10.980Z,79.01
2023-12-15T11:26:21.926Z,79.93
2023-12-15T11:29:24.962Z,80.78
2023-12-15T11:32:31.831Z,80.62
2023-12-15T11:35:34.981Z,79.75
2023-12-15T11:38:42.363Z,80.62
2023-12-15T11:41:48.793Z,81.43
2023-12-15T11:44:51.763Z,80.81
2023-12-15T11:47:55.735Z,81.51
2023-12-15T11:50:59.001Z,80.81
2023-12-15T11:54:12.083Z,80.37
2023-12-15T11:57:23.228Z,79.15
2023-12-15T12:00:27.390Z,79.55
2023-12-15T12:03:33.480Z,79.47
2023-12-15T12:06:38.454Z,79.29
2023-12-15T12:09:42.802Z,80.28
2023-12-15T12:12:45.699Z,80.01
2023-12-15T12:15:53.580Z,79.75
2023-12-15T12:18:57.981Z,79.92
2023-12-15T12:22:00.839Z,80.25
2023-12-15T12:25:08.282Z,79.54
2023-12-15T12:28:11.035Z,80.53
2023-12-15T12:31:16.146Z,81.15
2023-12-15T12:34:19.165Z,81.22
2023-12-15T12:37:22.078Z,81.49
2023-12-15T12:40:30.191Z,81.48
2023-12-15T12:43:32.918Z,81.47
2023-12-15T12:46:36.072Z,81.48
2023-12-15T12:49:49.575Z,81.69
2023-12-15T12:52:57.548Z,81.55
2023-12-15T12:56:02.001Z,83.01
2023-12-15T12:59:09.512Z,82.30
2023-12-15T13:02:20.534Z,82.19
2023-12-15T13:05:24.971Z,81.77
2023-12-15T13:08:27.978Z,82.79
2023-12-15T13:11:32.195Z,82.01
2023-12-15T13:14:35.191Z,82.05
2023-12-15T13:17:38.030Z,82.03
2023-12-15T13:20:41.248Z,82.50
2023-12-15T13:23:44.303Z,81.56
2023-12-15T13:26:49.734Z,82.28
2023-12-15T13:29:55.245Z,82.67
2023-12-15T13:32:58.620Z,83.41
2023-12-15T13:36:10.796Z,82.90
2023-12-15T13:39:18.691Z,82.93
2023-12-15T13:42:31.650Z,82.93
2023-12-15T13:45:41.556Z,83.49
2023-12-15T13:48:48.450Z,83.48
2023-12-15T13:51:51.226Z,84.11
2023-12-15T13:54:55.870Z,84.17
2023-12-15T13:58:02.678Z,83.94
2023-12-15T14:01:05.853Z,83.85
2023-12-15T14:04:14.583Z,83.94
2023-12-15T14:07:17.630Z,84.32
2023-12-15T14:10:20.381Z,83.97
2023-12-15T14:13:24.735Z,83.23
2023-12-15T14:16:40.739Z,84.04
2023-12-15T14:19:49.184Z,84.25
2023-12-15T14:22:55.570Z,84.35
2023-12-15T14:25:58.309Z,84.03
2023-12-15T14:29:05.023Z,84.24
2023-12-15T14:32:08.598Z,85.02
2023-12-15T14:35:14.306Z,84.36
2023-12-15T14:38:19.145Z,84.54
2023-12-15T14:41:24.592Z,84.81
2023-12-15T14:44:28.779Z,84.47
2023-12-15T14:47:31.651Z,84.48
2023-12-15T14:50:38.601Z,84.57
2023-12-15T14:53:41.581Z,84.59
2023-12-15T14:56:44.712Z,85.20
2023-12-15T14:59:49.646Z,84.84
2023-12-15T15:02:52.631Z,84.06
2023-12-15T15:05:55.731Z,84.52
2023-12-15T15:08:58.552Z,85.05
2023-12-15T15:12:02.628Z,84.39
2023-12-15T15:15:09.680Z,83.83
2023-12-15T15:18:14.544Z,84.20
2023-12-15T15:21:18.046Z,84.19
2023-12-15T15:24:22.130Z,84.21
2023-12-15T15:27:30.880Z,84.10
2023-12-15T15:30:37.181Z,84.87
2023-12-15T15:33:40.066Z,83.94
2023-12-15T15:36:43.145Z,84.15
2023-12-15T15:39:45.972Z,84.57
2023-12-15T15:42:55.293Z,85.05
2023-12-15T15:46:01.938Z,84.37
2023-12-15T15:49:04.984Z,84.71
2023-12-15T15:52:08.310Z,84.89
2023-12-15T15:55:14.125Z,84.79
2023-12-15T15:58:17.035Z,84.62
2023-12-15T16:01:35.337Z,84.60
2023-12-15T16:04:43.661Z,84.38
2023-12-15T16:07:46.393Z,84.14
2023-12-15T16:10:53.295Z,84.66
2023-12-15T16:14:02.498Z,84.41
2023-12-15T16:17:15.381Z,84.72
2023-12-15T16:20:23.282Z,85.21
2023-12-15T16:23:28.100Z,85.72
2023-12-15T16:26:34.314Z,85.00
2023-12-15T16:29:39.461Z,85.62
2023-12-15T16:32:44.239Z,85.12
2023-12-15T16:35:48.375Z,84.58
2023-12-15T16:38:52.064Z,85.01
2023-12-15T16:42:03.557Z,84.98
2023-12-15T16:45:09.469Z,85.57
2023-12-15T16:48:18.275Z,85.00
2023-12-15T16:51:23.721Z,85.57
2023-12-15T16:54:26.610Z,85.62
2023-12-15T16:57:29.362Z,85.50
2023-12-15T17:00:32.262Z,84.79
2023-12-15T17:03:38.529Z,84.73
2023-12-15T17:06:42.611Z,85.07
2023-12-15T17:09:47.452Z,85.09
2023-12-15T17:12:53.641Z,85.06
2023-12-15T17:15:58.263Z,84.96
2023-12-15T17:19:02.764Z,85.54
2023-12-15T17:22:05.566Z,86.16
2023-12-15T17:25:12.920Z,85.49
2023-12-15T17:28:26.405Z,85.08
2023-12-15T17:31:32.227Z,85.75
2023-12-15T17:34:36.535Z,85.88
2023-12-15T17:37:39.614Z,85.42
2023-12-15T17:40:42.472Z,85.30
2023-12-15T17:43:45.606Z,85.31
2023-12-15T17:46:48.382Z,86.02
2023-12-15T17:49:52.780Z,85.66
2023-12-15T17:52:55.539Z,86.15
2023-12-15T17:55:58.696Z,85.73
2023-12-15T17:59:01.404Z,85.19
2023-12-15T18:02:06.703Z,86.07
2023-12-15T18:05:11.277Z,85.34
2023-12-15T18:08:14.176Z,86.01
2023-12-15T18:11:21.168Z,86.06
2023-12-15T18:14:24.227Z,85.58
2023-12-15T18:17:27.016Z,86.11
2023-12-15T18:20:31.307Z,85.96
2023-12-15T18:23:34.005Z,85.35
2023-12-15T18:26:38.311Z,86.18
2023-12-15T18:29:41.029Z,86.31
2023-12-15T18:32:44.762Z,86.30
2023-12-15T18:35:48.937Z,85.27
2023-12-15T18:38:51.795Z,85.98
2023-12-15T18:41:54.565Z,85.16
2023-12-15T18:44:57.442Z,85.78
2023-12-15T18:48:00.296Z,85.86
2023-12-15T18:51:05.056Z,85.52
2023-12-15T18:54:09.856Z,85.20
2023-12-15T18:57:13.613Z,85.32
2023-12-15T19:00:19.875Z,85.69
2023-12-15T19:03:26.740Z,86.29
2023-12-15T19:06:30.957Z,86.04
2023-12-15T19:09:34.161Z,86.01
2023-12-15T19:12:37.828Z,85.77
2023-12-15T19:15:40.634Z,86.20
2023-12-15T19:18:44.883Z,86.57
2023-12-15T19:21:49.031Z,86.21
2023-12-15T19:24:55.680Z,86.84
2023-12-15T19:27:58.678Z,86.21
2023-12-15T19:31:01.854Z,86.28
2023-12-15T19:34:04.983Z,86.90
2023-12-15T19:37:09.355Z,86.41
2023-12-15T19:40:14.343Z,85.19
2023-12-15T19:43:17.170Z,85.80
2023-12-15T19:46:21.809Z,86.78
2023-12-15T19:49:26.101Z,86.48
2023-12-15T19:52:32.102Z,86.43
2023-12-15T19:55:37.375Z,86.05
2023-12-15T19:58:40.222Z,86.15
2023-12-15T20:01:43.035Z,85.59
2023-12-15T20:04:46.533Z,86.39
2023-12-15T20:07:51.048Z,86.39
2023-12-15T20:10:54.069Z,86.91
2023-12-15T20:13:56.909Z,86.67
2023-12-15T20:16:59.830Z,86.29
2023-12-15T20:20:02.709Z,85.88
2023-12-15T20:23:07.060Z,86.91
2023-12-15T20:26:10.466Z,86.83
2023-12-15T20:29:14.530Z,86.24
2023-12-15T20:32:17.237Z,86.22
2023-12-15T20:35:20.437Z,86.32
2023-12-15T20:38:24.717Z,85.89
2023-12-15T20:41:27.708Z,85.83
2023-12-15T20:44:30.455Z,86.24
2023-12-15T20:47:36.614Z,86.48
2023-12-15T20:50:39.609Z,86.07
2023-12-15T20:53:43.853Z,86.63
2023-12-15T20:56:46.680Z,86.91
2023-12-15T20:59:49.556Z,87.09
2023-12-15T21:02:52.308Z,86.47
2023-12-15T21:05:55.322Z,86.93
2023-12-15T21:09:00.113Z,86.92
2023-12-15T21:12:03.989Z,86.31
2023-12-15T21:15:07.685Z,86.56
2023-12-15T21:18:12.756Z,85.79
2023-12-15T21:21:15.562Z,86.97
2023-12-15T21:24:21.595Z,85.74
2023-12-15T21:27:24.379Z,86.56
2023-12-15T21:30:30.385Z,87.17
2023-12-15T21:33:33.142Z,86.02
2023-12-15T21:36:36.026Z,86.86
2023-12-15T21:39:42.112Z,86.34
2023-12-15T21:42:45.230Z,85.42
2023-12-15T21:45:47.952Z,86.24
2023-12-15T21:48:50.917Z,86.19
2023-12-15T21:51:53.916Z,86.25
2023-12-15T21:54:58.164Z,86.20
2023-12-15T21:58:01.178Z,86.27
2023-12-15T22:01:04.118Z,86.53
2023-12-15T22:04:08.891Z,85.78
2023-12-15T22:07:11.780Z,86.36
2023-12-15T22:10:16.548Z,85.64
2023-12-15T22:13:19.929Z,85.32
2023-12-15T22:16:22.890Z,85.28
2023-12-15T22:19:26.108Z,86.71
2023-12-15T22:22:29.128Z,85.69
2023-12-15T22:25:33.293Z,86.09
2023-12-15T22:28:36.238Z,85.91
2023-12-15T22:31:43.224Z,85.80
2023-12-15T22:34:47.642Z,85.99
2023-12-15T22:37:50.397Z,86.25
2023-12-15T22:40:54.607Z,85.73
2023-12-15T22:43:57.319Z,85.83
2023-12-15T22:47:00.217Z,85.57
2023-12-15T22:50:04.383Z,86.21
2023-12-15T22:53:07.558Z,85.63
2023-12-15T22:56:12.587Z,85.67
2023-12-15T22:59:15.760Z,84.99
2023-12-15T23:02:18.505Z,85.84
2023-12-15T23:05:21.534Z,85.41
2023-12-15T23:08:24.307Z,85.97
2023-12-15T23:11:28.612Z,86.16
2023-12-15T23:14:31.390Z,86.43
2023-12-15T23:17:34.661Z,85.40
2023-12-15T23:20:37.832Z,86.45
2023-12-15T23:23:40.700Z,85.10
2023-12-15T23:26:44.756Z,85.10
2023-12-15T23:29:47.677Z,85.22
2023-12-15T23:32:50.511Z,85.68
2023-12-15T23:35:53.382Z,85.87
2023-12-15T23:38:56.672Z,86.46
2023-12-15T23:42:00.872Z,86.06
2023-12-15T23:45:04.167Z,86.98
2023-12-15T23:48:07.313Z,85.69
2023-12-15T23:51:10.215Z,86.20
2023-12-15T23:54:13.201Z,86.77
2023-12-15T23:57:17.306Z,85.99
